createdAt,value
2022-11-13T00:01:16.237Z,95.90
2022-11-13T00:03:43.270Z,96.10
2022-11-13T00:06:12.013Z,96.30
2022-11-13T00:08:38.824Z,96.50
2022-11-13T00:11:10.386Z,96.60
2022-11-13T00:13:37.324Z,96.70
2022-11-13T00:16:06.842Z,96.70
2022-11-13T00:18:37.451Z,96.80
2022-11-13T00:21:09.136Z,97.00
2022-11-13T00:23:37.096Z,97.00
2022-11-13T00:26:09.460Z,97.00
2022-11-13T00:28:36.810Z,97.10
2022-11-13T00:31:06.419Z,97.10
2022-11-13T00:34:26.031Z,97.30
2022-11-13T00:36:37.154Z,97.50
2022-11-13T00:39:04.203Z,97.70
2022-11-13T00:41:30.972Z,97.90
2022-11-13T00:43:57.710Z,98.00
2022-11-13T00:46:24.504Z,98.20
2022-11-13T00:48:51.266Z,98.50
2022-11-13T00:51:19.645Z,98.60
2022-11-13T00:53:46.713Z,98.50
2022-11-13T00:56:40.495Z,98.50
2022-11-13T00:59:07.369Z,98.60
2022-11-13T01:01:34.339Z,98.70
2022-11-13T01:04:01.127Z,98.90
2022-11-13T01:06:28.875Z,99.00
2022-11-13T01:08:57.850Z,99.00
2022-11-13T01:11:26.668Z,99.40
2022-11-13T01:13:53.894Z,99.80
2022-11-13T01:16:24.673Z,99.90
2022-11-13T01:18:53.507Z,99.90
2022-11-13T01:21:23.397Z,99.90
2022-11-13T01:23:50.362Z,99.90
2022-11-13T01:26:23.467Z,99.90
2022-11-13T01:28:50.241Z,99.90
2022-11-13T01:31:24.685Z,99.90
2022-11-13T01:33:51.909Z,99.90
2022-11-13T01:36:29.463Z,99.90
2022-11-13T01:38:57.024Z,99.90
2022-11-13T01:41:25.736Z,99.90
2022-11-13T01:43:54.545Z,99.90
2022-11-13T01:46:47.853Z,99.90
2022-11-13T01:49:23.187Z,99.90
2022-11-13T01:52:04.487Z,99.90
2022-11-13T01:54:39.002Z,99.90
2022-11-13T01:57:07.183Z,99.90
2022-11-13T01:59:40.100Z,99.90
2022-11-13T02:02:07.424Z,99.90
2022-11-13T02:04:34.868Z,99.90
2022-11-13T02:07:14.355Z,99.90
2022-11-13T02:09:44.934Z,99.90
2022-11-13T02:12:14.405Z,99.90
2022-11-13T02:14:46.055Z,99.90
2022-11-13T02:17:23.165Z,99.90
2022-11-13T02:19:54.231Z,99.90
2022-11-13T02:23:09.578Z,99.90
2022-11-13T02:25:37.822Z,99.90
2022-11-13T02:28:04.581Z,99.90
2022-11-13T02:30:34.243Z,99.90
2022-11-13T02:33:01.562Z,99.90
2022-11-13T02:35:35.391Z,99.90
2022-11-13T02:38:04.722Z,99.90
2022-11-13T02:40:33.170Z,99.80
2022-11-13T02:43:00.178Z,99.70
2022-11-13T02:45:26.990Z,99.60
2022-11-13T02:47:53.753Z,99.40
2022-11-13T02:50:20.637Z,99.10
2022-11-13T02:52:47.580Z,98.90
2022-11-13T02:55:15.302Z,98.70
2022-11-13T02:57:42.030Z,98.60
2022-11-13T03:00:13.768Z,98.40
2022-11-13T03:02:41.290Z,98.40
2022-11-13T03:05:13.231Z,98.50
2022-11-13T03:07:41.239Z,98.40
2022-11-13T03:10:09.452Z,98.30
2022-11-13T03:12:36.446Z,98.30
2022-11-13T03:15:04.105Z,98.40
2022-11-13T03:17:44.097Z,98.50
2022-11-13T03:20:10.881Z,98.50
2022-11-13T03:22:37.774Z,98.70
2022-11-13T03:25:10.215Z,98.80
2022-11-13T03:27:37.709Z,98.80
2022-11-13T03:30:05.628Z,98.80
2022-11-13T03:32:32.364Z,98.90
2022-11-13T03:34:59.148Z,99.20
2022-11-13T03:37:25.916Z,99.20
2022-11-13T03:39:52.678Z,99.30
2022-11-13T03:42:19.931Z,99.60
2022-11-13T03:44:46.712Z,99.90
2022-11-13T03:47:13.593Z,99.90
2022-11-13T03:49:40.344Z,99.90
2022-11-13T03:52:07.239Z,99.90
2022-11-13T03:54:33.994Z,99.90
2022-11-13T03:57:00.788Z,99.90
2022-11-13T03:59:27.509Z,99.90
2022-11-13T04:01:54.315Z,99.90
2022-11-13T04:04:21.152Z,99.90
2022-11-13T04:06:47.943Z,99.70
2022-11-13T04:09:14.932Z,99.40
2022-11-13T04:11:41.658Z,99.20
2022-11-13T04:14:08.360Z,98.90
2022-11-13T04:16:50.360Z,98.60
2022-11-13T04:19:17.048Z,98.40
2022-11-13T04:21:43.788Z,98.10
2022-11-13T04:24:10.647Z,98.00
2022-11-13T04:26:37.381Z,97.90
2022-11-13T04:29:04.082Z,97.90
2022-11-13T04:31:30.794Z,97.90
2022-11-13T04:33:57.533Z,98.00
2022-11-13T04:36:24.263Z,97.90
2022-11-13T04:38:51.044Z,98.00
2022-11-13T04:41:36.273Z,97.90
2022-11-13T04:44:02.999Z,97.90
2022-11-13T04:46:29.659Z,98.00
2022-11-13T04:48:56.376Z,98.20
2022-11-13T04:51:23.160Z,98.40
2022-11-13T04:53:49.885Z,98.70
2022-11-13T04:56:16.596Z,99.00
2022-11-13T04:58:43.332Z,99.10
2022-11-13T05:01:10.132Z,99.30
2022-11-13T05:03:38.079Z,99.40
2022-11-13T05:06:13.066Z,99.60
2022-11-13T05:08:39.771Z,99.90
2022-11-13T05:11:06.626Z,99.90
2022-11-13T05:13:34.887Z,99.90
2022-11-13T05:16:07.008Z,99.90
2022-11-13T05:18:35.228Z,99.90
2022-11-13T05:21:02.196Z,99.90
2022-11-13T05:23:29.064Z,99.90
2022-11-13T05:26:06.983Z,99.90
2022-11-13T05:28:34.177Z,99.90
2022-11-13T05:31:12.721Z,99.90
2022-11-13T05:33:41.204Z,99.90
2022-11-13T05:36:16.749Z,99.90
2022-11-13T05:38:43.790Z,99.90
2022-11-13T05:41:16.122Z,99.90
2022-11-13T05:43:43.361Z,99.90
2022-11-13T05:46:13.202Z,99.90
2022-11-13T05:48:40.759Z,99.90
2022-11-13T05:51:13.321Z,99.90
2022-11-13T05:53:40.358Z,99.90
2022-11-13T05:56:11.045Z,99.90
2022-11-13T05:58:38.047Z,99.90
2022-11-13T06:01:31.931Z,99.90
2022-11-13T06:04:00.701Z,99.90
2022-11-13T06:06:29.465Z,99.90
2022-11-13T06:08:57.481Z,99.90
2022-11-13T06:11:28.149Z,99.80
2022-11-13T06:13:55.961Z,99.40
2022-11-13T06:16:34.004Z,99.20
2022-11-13T06:19:02.419Z,99.00
2022-11-13T06:25:36.315Z,99.00
2022-11-13T06:28:03.392Z,99.00
2022-11-13T06:30:30.150Z,99.20
2022-11-13T06:32:59.952Z,99.50
2022-11-13T06:35:27.307Z,99.60
2022-11-13T06:37:57.221Z,99.80
2022-11-13T06:40:23.996Z,99.90
2022-11-13T06:42:51.324Z,99.90
2022-11-13T06:45:18.096Z,99.90
2022-11-13T06:47:44.967Z,99.90
2022-11-13T06:50:11.809Z,99.90
2022-11-13T06:52:38.583Z,99.90
2022-11-13T06:55:05.585Z,99.90
2022-11-13T06:57:32.718Z,99.90
2022-11-13T07:00:00.142Z,99.90
2022-11-13T07:02:26.970Z,99.90
2022-11-13T07:04:53.733Z,99.90
2022-11-13T07:07:20.504Z,99.90
2022-11-13T07:09:47.328Z,99.90
2022-11-13T07:12:14.097Z,99.90
2022-11-13T07:14:40.913Z,99.90
2022-11-13T07:17:10.357Z,99.90
2022-11-13T07:19:37.438Z,99.90
2022-11-13T07:22:04.187Z,99.90
2022-11-13T07:24:30.942Z,99.90
2022-11-13T07:26:57.866Z,99.90
2022-11-13T07:29:24.663Z,99.90
2022-11-13T07:31:51.445Z,99.90
2022-11-13T07:34:18.206Z,99.90
2022-11-13T07:36:45.112Z,99.90
2022-11-13T07:39:12.415Z,99.90
2022-11-13T07:41:39.176Z,99.90
2022-11-13T07:44:09.130Z,99.90
2022-11-13T07:46:36.533Z,99.90
2022-11-13T07:49:03.380Z,99.40
2022-11-13T07:51:30.139Z,99.00
2022-11-13T07:53:57.180Z,98.80
2022-11-13T07:56:25.432Z,98.50
2022-11-13T07:58:52.138Z,98.30
2022-11-13T08:01:18.929Z,98.40
2022-11-13T08:03:45.718Z,98.30
2022-11-13T08:14:30.255Z,98.70
2022-11-13T08:16:56.981Z,99.20
2022-11-13T08:19:23.732Z,99.70
2022-11-13T08:21:50.465Z,99.90
2022-11-13T08:24:17.891Z,99.90
2022-11-13T08:26:44.862Z,99.90
2022-11-13T08:29:11.630Z,99.90
2022-11-13T08:31:38.374Z,99.90
2022-11-13T08:34:05.142Z,99.90
2022-11-13T08:36:31.927Z,99.90
2022-11-13T08:38:58.739Z,99.90
2022-11-13T08:41:25.497Z,99.90
2022-11-13T08:43:52.266Z,99.90
2022-11-13T08:46:19.023Z,99.90
2022-11-13T08:48:45.818Z,99.90
2022-11-13T08:51:12.575Z,99.90
2022-11-13T08:53:39.933Z,99.90
2022-11-13T08:56:07.762Z,99.90
2022-11-13T08:58:34.509Z,99.90
2022-11-13T09:01:02.542Z,99.90
2022-11-13T09:03:29.748Z,99.90
2022-11-13T09:05:56.579Z,99.90
2022-11-13T09:08:23.297Z,99.90
2022-11-13T09:10:50.060Z,99.90
2022-11-13T09:13:16.900Z,99.90
2022-11-13T09:15:43.673Z,99.90
2022-11-13T09:18:10.514Z,99.90
2022-11-13T09:20:37.380Z,99.90
2022-11-13T09:23:07.136Z,99.90
2022-11-13T09:25:37.813Z,99.90
2022-11-13T09:28:06.155Z,99.90
2022-11-13T09:30:33.603Z,99.90
2022-11-13T09:33:01.220Z,99.90
2022-11-13T09:35:34.882Z,99.90
2022-11-13T09:38:11.528Z,99.90
2022-11-13T09:40:50.894Z,99.90
2022-11-13T09:43:32.620Z,99.90
2022-11-13T09:46:34.569Z,99.90
2022-11-13T09:49:25.103Z,99.90
2022-11-13T09:51:55.272Z,99.90
2022-11-13T09:54:22.629Z,99.90
2022-11-13T09:56:57.723Z,99.90
2022-11-13T09:59:49.266Z,99.90
2022-11-13T10:02:41.809Z,99.90
2022-11-13T10:05:27.373Z,99.90
2022-11-13T10:08:04.432Z,99.90
2022-11-13T10:10:52.216Z,99.90
2022-11-13T10:13:24.820Z,99.90
2022-11-13T10:15:56.635Z,99.90
2022-11-13T10:18:30.702Z,99.90
2022-11-13T10:21:15.055Z,99.90
2022-11-13T10:23:44.122Z,99.90
2022-11-13T10:26:21.966Z,99.90
2022-11-13T10:29:02.813Z,99.90
2022-11-13T10:31:29.597Z,99.90
2022-11-13T10:33:57.924Z,99.90
2022-11-13T10:36:37.950Z,99.90
2022-11-13T10:39:09.651Z,99.90
2022-11-13T10:41:51.012Z,99.90
2022-11-13T10:44:36.220Z,99.90
2022-11-13T10:47:42.339Z,99.90
2022-11-13T10:50:30.129Z,99.90
2022-11-13T10:52:58.713Z,99.90
2022-11-13T10:55:39.340Z,99.90
2022-11-13T10:58:18.197Z,99.60
2022-11-13T11:00:49.079Z,98.90
2022-11-13T11:03:20.681Z,98.90
2022-11-13T11:05:59.207Z,98.70
2022-11-13T11:08:32.405Z,98.20
2022-11-13T11:11:20.465Z,98.30
2022-11-13T11:13:48.739Z,98.30
2022-11-13T11:16:21.093Z,98.10
2022-11-13T11:18:52.025Z,98.00
2022-11-13T11:21:23.180Z,97.70
2022-11-13T11:23:59.179Z,97.70
2022-11-13T11:26:44.143Z,97.70
2022-11-13T11:29:25.117Z,97.80
2022-11-13T11:32:16.285Z,97.40
2022-11-13T11:34:59.265Z,97.30
2022-11-13T11:37:35.462Z,97.30
2022-11-13T11:40:16.246Z,97.20
2022-11-13T11:42:56.276Z,96.70
2022-11-13T11:45:25.765Z,96.90
2022-11-13T11:47:54.091Z,97.00
2022-11-13T11:50:43.213Z,97.10
2022-11-13T11:53:28.692Z,97.30
2022-11-13T11:55:55.430Z,97.50
2022-11-13T11:58:52.301Z,97.30
2022-11-13T12:01:33.481Z,97.00
2022-11-13T12:04:31.481Z,96.70
2022-11-13T12:07:09.104Z,97.00
2022-11-13T12:10:08.846Z,97.00
2022-11-13T12:12:59.918Z,97.10
2022-11-13T12:15:58.931Z,97.20
2022-11-13T12:19:06.209Z,97.40
2022-11-13T12:21:51.754Z,97.70
2022-11-13T12:25:01.492Z,98.10
2022-11-13T12:27:34.351Z,98.10
2022-11-13T12:30:30.312Z,98.30
2022-11-13T12:33:12.192Z,98.60
2022-11-13T12:35:39.747Z,98.80
2022-11-13T12:38:18.988Z,98.80
2022-11-13T12:41:02.386Z,99.10
2022-11-13T12:43:48.138Z,99.30
2022-11-13T12:46:15.630Z,99.70
2022-11-13T12:48:47.443Z,99.20
2022-11-13T12:51:16.499Z,99.00
2022-11-13T12:53:54.517Z,99.00
2022-11-13T12:56:24.318Z,99.20
2022-11-13T12:59:34.381Z,99.30
2022-11-13T13:02:07.491Z,99.20
2022-11-13T13:04:56.637Z,99.30
2022-11-13T13:07:51.182Z,99.50
2022-11-13T13:10:35.330Z,99.90
2022-11-13T13:13:19.522Z,99.90
2022-11-13T13:15:58.329Z,99.90
2022-11-13T13:18:32.030Z,99.90
2022-11-13T13:21:02.119Z,99.90
2022-11-13T13:23:47.277Z,99.90
2022-11-13T13:26:20.320Z,99.90
2022-11-13T13:29:02.158Z,99.90
2022-11-13T13:31:58.142Z,99.90
2022-11-13T13:34:47.996Z,99.90
2022-11-13T13:37:43.182Z,99.90
2022-11-13T13:40:28.093Z,99.90
2022-11-13T13:43:14.963Z,99.90
2022-11-13T13:46:15.367Z,99.90
2022-11-13T13:48:45.665Z,99.90
2022-11-13T13:51:23.646Z,99.90
2022-11-13T13:53:50.599Z,99.90
2022-11-13T13:56:19.215Z,99.90
2022-11-13T13:58:46.627Z,99.90
2022-11-13T14:01:25.521Z,99.90
2022-11-13T14:04:18.520Z,99.90
2022-11-13T14:06:51.506Z,99.90
2022-11-13T14:09:29.504Z,99.90
2022-11-13T14:12:09.857Z,99.90
2022-11-13T14:14:39.637Z,99.90
2022-11-13T14:17:07.005Z,99.90
2022-11-13T14:19:33.803Z,99.90
2022-11-13T14:22:04.550Z,99.90
2022-11-13T14:25:05.339Z,99.90
2022-11-13T14:27:32.344Z,99.90
2022-11-13T14:30:01.327Z,99.90
2022-11-13T14:32:41.885Z,99.90
2022-11-13T14:35:20.279Z,99.90
2022-11-13T14:37:47.281Z,99.90
2022-11-13T14:40:27.440Z,99.90
2022-11-13T14:42:58.501Z,99.90
2022-11-13T14:45:33.273Z,99.90
2022-11-13T14:48:04.899Z,99.90
2022-11-13T14:50:36.579Z,99.90
2022-11-13T14:53:07.025Z,99.90
2022-11-13T14:55:38.172Z,99.90
2022-11-13T14:58:05.485Z,99.90
2022-11-13T15:00:37.438Z,99.90
2022-11-13T15:03:06.146Z,99.90
2022-11-13T15:05:33.137Z,99.90
2022-11-13T15:08:00.313Z,99.90
2022-11-13T15:10:29.175Z,99.90
2022-11-13T15:12:56.040Z,99.90
2022-11-13T15:15:30.205Z,99.90
2022-11-13T15:17:57.210Z,99.90
2022-11-13T15:20:26.741Z,99.90
2022-11-13T15:22:54.584Z,99.90
2022-11-13T15:25:24.083Z,99.90
2022-11-13T15:27:51.096Z,99.90
2022-11-13T15:30:19.518Z,99.90
2022-11-13T15:32:46.884Z,99.90
2022-11-13T15:35:17.868Z,99.90
2022-11-13T15:37:45.402Z,99.90
2022-11-13T15:40:13.871Z,99.90
2022-11-13T15:42:41.295Z,99.90
2022-11-13T15:45:14.557Z,99.90
2022-11-13T15:47:41.785Z,99.90
2022-11-13T15:50:13.825Z,99.90
2022-11-13T15:52:45.911Z,99.90
2022-11-13T15:55:23.755Z,99.90
2022-11-13T15:57:50.732Z,99.90
2022-11-13T16:00:21.534Z,99.90
2022-11-13T16:02:50.763Z,99.90
2022-11-13T16:05:17.957Z,99.90
2022-11-13T16:07:44.705Z,99.90
2022-11-13T16:10:11.491Z,99.90
2022-11-13T16:12:38.318Z,99.90
2022-11-13T16:15:05.657Z,99.90
2022-11-13T16:17:39.637Z,99.90
2022-11-13T16:20:10.310Z,99.90
2022-11-13T16:22:37.077Z,99.90
2022-11-13T16:25:04.523Z,99.90
2022-11-13T16:27:34.121Z,99.90
2022-11-13T16:30:06.351Z,99.90
2022-11-13T16:32:33.585Z,99.90
2022-11-13T16:35:00.342Z,99.90
2022-11-13T16:37:27.121Z,99.90
2022-11-13T16:39:53.896Z,99.90
2022-11-13T16:42:20.671Z,99.90
2022-11-13T16:44:47.620Z,99.90
2022-11-13T16:47:23.266Z,99.90
2022-11-13T16:49:50.555Z,99.90
2022-11-13T16:52:17.683Z,99.90
2022-11-13T16:54:44.675Z,99.90
2022-11-13T16:57:12.910Z,99.90
2022-11-13T16:59:40.218Z,99.90
2022-11-13T17:02:18.221Z,99.90
2022-11-13T17:04:45.182Z,99.90
2022-11-13T17:07:13.885Z,99.90
2022-11-13T17:09:42.778Z,99.90
2022-11-13T17:12:11.054Z,99.90
2022-11-13T17:14:38.509Z,99.60
2022-11-13T17:17:10.838Z,99.00
2022-11-13T17:19:43.773Z,98.90
2022-11-13T17:22:12.121Z,98.70
2022-11-13T17:24:40.081Z,98.60
2022-11-13T17:27:07.368Z,98.70
2022-11-13T17:29:34.510Z,98.60
2022-11-13T17:32:01.300Z,98.30
2022-11-13T17:34:28.117Z,98.10
2022-11-13T17:36:54.938Z,98.10
2022-11-13T17:39:21.715Z,97.60
2022-11-13T17:41:50.546Z,97.30
2022-11-13T17:44:17.680Z,97.20
2022-11-13T17:46:44.828Z,97.40
2022-11-13T17:49:11.587Z,97.30
2022-11-13T17:51:38.408Z,97.40
2022-11-13T17:54:05.218Z,97.30
2022-11-13T17:56:32.032Z,97.00
2022-11-13T17:58:58.820Z,96.90
2022-11-13T18:01:25.627Z,96.90
2022-11-13T18:03:56.382Z,96.50
2022-11-13T18:06:23.703Z,96.40
2022-11-13T18:08:50.623Z,96.20
2022-11-13T18:11:23.507Z,95.90
2022-11-13T18:13:51.447Z,95.20
2022-11-13T18:16:24.541Z,94.50
2022-11-13T18:18:56.183Z,94.20
2022-11-13T18:21:25.667Z,94.10
2022-11-13T18:24:05.969Z,94.20
2022-11-13T18:26:33.740Z,94.20
2022-11-13T18:29:01.584Z,94.20
2022-11-13T18:31:29.549Z,94.10
2022-11-13T18:33:59.550Z,93.90
2022-11-13T18:36:26.728Z,93.90
2022-11-13T18:38:53.606Z,93.90
2022-11-13T18:41:21.948Z,93.80
2022-11-13T18:43:51.504Z,93.70
2022-11-13T18:46:21.514Z,93.60
2022-11-13T18:48:49.181Z,93.60
2022-11-13T18:51:21.935Z,93.70
2022-11-13T18:53:50.120Z,93.90
2022-11-13T18:56:22.900Z,93.90
2022-11-13T18:58:51.243Z,93.80
2022-11-13T19:01:30.518Z,93.70
2022-11-13T19:04:21.586Z,93.70
2022-11-13T19:06:48.645Z,93.70
2022-11-13T19:09:16.934Z,93.80
2022-11-13T19:11:44.924Z,93.80
2022-11-13T19:14:16.859Z,93.80
2022-11-13T19:16:43.723Z,93.80
2022-11-13T19:19:19.721Z,93.80
2022-11-13T19:21:47.053Z,93.90
2022-11-13T19:24:14.962Z,94.00
2022-11-13T19:26:43.347Z,93.90
2022-11-13T19:29:10.640Z,94.00
2022-11-13T19:31:37.497Z,94.00
2022-11-13T19:34:07.562Z,94.00
2022-11-13T19:36:35.070Z,94.10
2022-11-13T19:39:02.069Z,94.20
2022-11-13T19:41:29.696Z,94.40
2022-11-13T19:43:59.531Z,94.60
2022-11-13T19:46:26.838Z,94.80
2022-11-13T19:48:53.619Z,95.10
2022-11-13T19:51:22.920Z,95.30
2022-11-13T19:53:54.677Z,95.50
2022-11-13T19:56:22.861Z,95.80
2022-11-13T19:58:50.874Z,96.10
2022-11-13T20:01:20.071Z,96.40
2022-11-13T20:03:47.283Z,96.70
2022-11-13T20:06:16.917Z,96.80
2022-11-13T20:08:44.047Z,97.10
2022-11-13T20:11:13.466Z,97.30
2022-11-13T20:13:41.839Z,97.70
2022-11-13T20:16:10.969Z,98.00
2022-11-13T20:18:38.024Z,98.10
2022-11-13T20:21:05.609Z,98.40
2022-11-13T20:23:32.626Z,98.60
2022-11-13T20:26:12.013Z,98.70
2022-11-13T20:28:38.745Z,98.70
2022-11-13T20:31:16.322Z,98.80
2022-11-13T20:33:43.620Z,99.00
2022-11-13T20:36:10.464Z,99.40
2022-11-13T20:38:37.476Z,99.60
2022-11-13T20:41:05.908Z,99.60
2022-11-13T20:43:32.835Z,99.60
2022-11-13T20:46:13.725Z,99.70
2022-11-13T20:48:40.628Z,99.70
2022-11-13T20:51:09.098Z,99.90
2022-11-13T20:53:35.875Z,99.90
2022-11-13T20:56:02.577Z,99.90
2022-11-13T20:58:29.733Z,99.90
2022-11-13T21:01:05.271Z,99.90
2022-11-13T21:03:37.131Z,99.90
2022-11-13T21:06:07.785Z,99.90
2022-11-13T21:08:34.532Z,99.90
2022-11-13T21:11:02.396Z,99.90
2022-11-13T21:13:29.606Z,99.90
2022-11-13T21:15:56.360Z,99.90
2022-11-13T21:18:23.181Z,99.90
2022-11-13T21:20:49.999Z,99.90
2022-11-13T21:23:17.125Z,99.90
2022-11-13T21:25:44.032Z,99.90
2022-11-13T21:28:10.911Z,99.90
2022-11-13T21:30:37.581Z,99.90
2022-11-13T21:33:04.305Z,99.90
2022-11-13T21:35:31.179Z,99.90
2022-11-13T21:37:57.932Z,99.90
2022-11-13T21:40:24.658Z,99.90
2022-11-13T21:42:51.529Z,99.90
2022-11-13T21:45:18.207Z,99.90
2022-11-13T21:47:44.882Z,99.90
2022-11-13T21:50:11.698Z,99.90
2022-11-13T21:52:38.719Z,99.90
2022-11-13T21:55:05.957Z,99.90
2022-11-13T21:57:32.650Z,99.90
2022-11-13T21:59:59.376Z,99.90
2022-11-13T22:02:26.239Z,99.90
2022-11-13T22:04:53.120Z,99.90
2022-11-13T22:07:19.949Z,99.90
2022-11-13T22:09:46.742Z,99.90
2022-11-13T22:12:14.256Z,99.90
2022-11-13T22:14:41.016Z,99.90
2022-11-13T22:17:07.704Z,99.90
2022-11-13T22:19:36.344Z,99.90
2022-11-13T22:22:03.290Z,99.90
2022-11-13T22:24:30.800Z,99.90
2022-11-13T22:26:57.503Z,99.90
2022-11-13T22:29:24.209Z,99.80
2022-11-13T22:31:50.974Z,99.60
2022-11-13T22:34:18.236Z,99.30
2022-11-13T22:36:45.019Z,99.20
2022-11-13T22:39:11.720Z,99.00
2022-11-13T22:41:38.410Z,98.70
2022-11-13T22:44:07.353Z,98.40
2022-11-13T22:46:35.873Z,98.30
2022-11-13T22:49:04.963Z,98.20
2022-11-13T22:51:41.559Z,98.10
2022-11-13T22:54:12.701Z,97.90
2022-11-13T22:56:41.194Z,97.80
2022-11-13T22:59:10.681Z,97.90
2022-11-13T23:01:39.384Z,97.70
2022-11-13T23:04:09.646Z,97.40
2022-11-13T23:06:36.610Z,97.50
2022-11-13T23:09:04.520Z,97.60
2022-11-13T23:11:34.509Z,97.80
2022-11-13T23:14:03.644Z,97.80
2022-11-13T23:16:31.991Z,97.70
2022-11-13T23:19:00.222Z,97.70
2022-11-13T23:21:28.569Z,97.70
2022-11-13T23:23:56.746Z,97.50
2022-11-13T23:26:24.790Z,97.60
2022-11-13T23:28:51.597Z,97.50
2022-11-13T23:31:18.569Z,97.40
2022-11-13T23:33:45.592Z,97.10
2022-11-13T23:36:14.296Z,97.00
2022-11-13T23:38:41.739Z,97.00
2022-11-13T23:41:10.449Z,97.00
2022-11-13T23:44:07.195Z,96.80
2022-11-13T23:46:24.041Z,96.90
2022-11-13T23:48:50.732Z,96.90
2022-11-13T23:51:17.464Z,96.60
2022-11-13T23:53:44.165Z,96.30
2022-11-13T23:56:11.269Z,96.20
2022-11-13T23:58:38.021Z,96.40
